createdAt,value
2022-11-23T00:01:15.953Z,77.42
2022-11-23T00:03:47.858Z,77.27
2022-11-23T00:06:14.480Z,77.88
2022-11-23T00:08:43.506Z,77.84
2022-11-23T00:11:12.410Z,78.14
2022-11-23T00:13:41.314Z,77.88
2022-11-23T00:16:15.737Z,77.82
2022-11-23T00:18:45.560Z,77.97
2022-11-23T00:21:15.204Z,78.03
2022-11-23T00:23:41.981Z,78.15
2022-11-23T00:26:11.178Z,78.01
2022-11-23T00:28:40.785Z,77.99
2022-11-23T00:31:09.057Z,78.22
2022-11-23T00:33:42.899Z,77.93
2022-11-23T00:36:17.668Z,77.83
2022-11-23T00:38:47.725Z,77.02
2022-11-23T00:41:15.381Z,77.85
2022-11-23T00:43:42.135Z,77.67
2022-11-23T00:46:19.082Z,78.02
2022-11-23T00:48:46.692Z,78.46
2022-11-23T00:51:14.633Z,78.54
2022-11-23T00:53:41.195Z,78.47
2022-11-23T00:56:07.943Z,78.99
2022-11-23T00:58:34.716Z,79.04
2022-11-23T01:01:03.731Z,78.63
2022-11-23T01:03:32.402Z,78.80
2022-11-23T01:06:02.127Z,79.49
2022-11-23T01:08:28.634Z,78.74
2022-11-23T01:11:00.573Z,79.60
2022-11-23T01:13:27.302Z,78.93
2022-11-23T01:15:56.311Z,79.55
2022-11-23T01:18:23.049Z,80.01
2022-11-23T01:20:49.549Z,79.99
2022-11-23T01:23:20.459Z,80.33
2022-11-23T01:25:47.229Z,79.81
2022-11-23T01:28:16.130Z,79.50
2022-11-23T01:30:42.922Z,80.05
2022-11-23T01:33:09.449Z,80.21
2022-11-23T01:35:38.524Z,79.88
2022-11-23T01:38:05.255Z,80.71
2022-11-23T01:40:33.018Z,80.84
2022-11-23T01:43:00.115Z,81.46
2022-11-23T01:45:38.999Z,81.33
2022-11-23T01:48:16.793Z,81.06
2022-11-23T01:50:47.231Z,80.60
2022-11-23T01:53:13.873Z,80.71
2022-11-23T01:55:40.410Z,81.02
2022-11-23T01:58:10.562Z,80.42
2022-11-23T02:00:40.030Z,81.11
2022-11-23T02:03:08.214Z,81.51
2022-11-23T02:05:38.951Z,81.70
2022-11-23T02:08:05.793Z,81.55
2022-11-23T02:10:32.444Z,81.43
2022-11-23T02:13:08.687Z,81.27
2022-11-23T02:15:35.338Z,80.46
2022-11-23T02:18:04.864Z,81.18
2022-11-23T02:20:34.127Z,81.50
2022-11-23T02:23:09.740Z,81.55
2022-11-23T02:25:45.557Z,81.09
2022-11-23T02:28:15.037Z,80.83
2022-11-23T02:30:41.650Z,81.15
2022-11-23T02:33:10.524Z,81.39
2022-11-23T02:35:46.739Z,80.86
2022-11-23T02:38:13.266Z,80.96
2022-11-23T02:40:42.110Z,80.77
2022-11-23T02:43:08.658Z,80.79
2022-11-23T02:45:43.798Z,80.96
2022-11-23T02:48:12.798Z,80.94
2022-11-23T02:50:42.348Z,80.90
2022-11-23T02:53:11.874Z,81.12
2022-11-23T02:55:38.419Z,81.68
2022-11-23T02:58:05.992Z,82.09
2022-11-23T03:00:32.960Z,81.51
2022-11-23T03:03:00.705Z,79.94
2022-11-23T03:05:27.308Z,80.24
2022-11-23T03:07:56.285Z,80.55
2022-11-23T03:10:25.370Z,80.19
2022-11-23T03:12:54.369Z,80.63
2022-11-23T03:15:21.026Z,80.69
2022-11-23T03:17:47.662Z,80.35
2022-11-23T03:20:18.542Z,80.74
2022-11-23T03:22:48.626Z,80.77
2022-11-23T03:25:17.135Z,80.00
2022-11-23T03:27:45.964Z,81.04
2022-11-23T03:30:12.874Z,81.05
2022-11-23T03:32:39.412Z,81.15
2022-11-23T03:35:06.257Z,81.77
2022-11-23T03:37:34.646Z,82.06
2022-11-23T03:40:01.829Z,82.39
2022-11-23T03:42:48.330Z,82.25
2022-11-23T03:45:14.957Z,81.88
2022-11-23T03:47:41.562Z,81.91
2022-11-23T03:50:08.306Z,81.54
2022-11-23T03:55:03.444Z,81.15
2022-11-23T03:57:33.314Z,81.66
2022-11-23T04:00:02.385Z,81.54
2022-11-23T04:02:39.782Z,81.61
2022-11-23T04:05:13.273Z,81.79
2022-11-23T04:08:00.145Z,81.81
2022-11-23T04:10:29.241Z,81.45
2022-11-23T04:13:21.806Z,81.57
2022-11-23T04:15:49.289Z,80.84
2022-11-23T04:18:15.898Z,81.42
2022-11-23T04:20:42.470Z,81.93
2022-11-23T04:23:13.548Z,80.32
2022-11-23T04:25:41.369Z,80.84
2022-11-23T04:28:10.516Z,81.61
2022-11-23T04:30:37.518Z,81.35
2022-11-23T04:33:04.362Z,81.48
2022-11-23T04:35:34.260Z,80.82
2022-11-23T04:38:03.940Z,81.39
2022-11-23T04:40:31.805Z,81.49
2022-11-23T04:43:07.043Z,82.02
2022-11-23T04:45:37.795Z,81.80
2022-11-23T04:48:08.993Z,82.26
2022-11-23T04:50:40.415Z,81.51
2022-11-23T04:53:08.683Z,82.21
2022-11-23T04:55:43.927Z,82.65
2022-11-23T04:58:10.995Z,82.62
2022-11-23T05:00:37.701Z,82.23
2022-11-23T05:03:05.260Z,83.02
2022-11-23T05:05:34.363Z,82.57
2022-11-23T05:08:02.450Z,82.74
2022-11-23T05:10:47.722Z,82.84
2022-11-23T05:13:16.771Z,81.79
2022-11-23T05:15:44.546Z,81.98
2022-11-23T05:18:14.502Z,82.52
2022-11-23T05:20:41.637Z,82.13
2022-11-23T05:23:08.308Z,81.89
2022-11-23T05:25:41.009Z,82.70
2022-11-23T05:31:13.555Z,82.93
2022-11-23T05:33:42.802Z,83.03
2022-11-23T05:36:09.650Z,82.75
2022-11-23T05:38:38.526Z,81.80
2022-11-23T05:41:11.030Z,82.74
2022-11-23T05:43:40.407Z,82.71
2022-11-23T05:46:12.038Z,82.74
2022-11-23T05:48:39.069Z,82.99
2022-11-23T05:51:10.105Z,82.59
2022-11-23T05:53:41.426Z,82.38
2022-11-23T05:56:29.371Z,82.70
2022-11-23T05:59:05.452Z,82.21
2022-11-23T06:01:35.092Z,82.50
2022-11-23T06:04:03.850Z,82.58
2022-11-23T06:06:38.287Z,81.97
2022-11-23T06:09:07.191Z,81.63
2022-11-23T06:11:39.773Z,82.54
2022-11-23T06:14:14.462Z,82.39
2022-11-23T06:16:44.041Z,82.92
2022-11-23T06:19:30.975Z,82.98
2022-11-23T06:21:58.667Z,82.80
2022-11-23T06:24:27.030Z,83.24
2022-11-23T06:27:18.236Z,83.30
2022-11-23T06:29:50.529Z,82.90
2022-11-23T06:32:18.180Z,82.03
2022-11-23T06:34:47.037Z,82.65
2022-11-23T06:37:16.096Z,82.61
2022-11-23T06:39:46.502Z,82.93
2022-11-23T06:45:00.143Z,81.97
2022-11-23T06:47:32.092Z,81.98
2022-11-23T06:49:58.634Z,81.89
2022-11-23T06:52:31.474Z,81.80
2022-11-23T06:54:58.013Z,81.48
2022-11-23T06:57:25.266Z,81.05
2022-11-23T06:59:53.068Z,81.50
2022-11-23T07:02:28.259Z,81.26
2022-11-23T07:04:57.452Z,81.11
2022-11-23T07:07:24.929Z,81.42
2022-11-23T07:10:05.449Z,80.18
2022-11-23T07:12:40.754Z,79.60
2022-11-23T07:15:10.362Z,80.34
2022-11-23T07:17:38.906Z,81.08
2022-11-23T07:20:05.969Z,80.66
2022-11-23T07:22:32.556Z,80.96
2022-11-23T07:24:59.139Z,80.82
2022-11-23T07:27:28.345Z,80.92
2022-11-23T07:29:57.364Z,80.72
2022-11-23T07:32:24.086Z,76.81
2022-11-23T07:34:50.711Z,78.90
2022-11-23T07:37:17.262Z,79.80
2022-11-23T07:39:57.528Z,78.94
2022-11-23T07:42:38.336Z,79.71
2022-11-23T07:45:13.447Z,79.75
2022-11-23T07:47:44.187Z,78.77
2022-11-23T07:50:13.519Z,79.65
2022-11-23T07:52:40.922Z,79.22
2022-11-23T07:55:08.082Z,78.55
2022-11-23T07:57:34.613Z,78.00
2022-11-23T08:00:01.166Z,77.41
2022-11-23T08:02:30.324Z,78.63
2022-11-23T08:04:56.931Z,78.56
2022-11-23T08:07:26.538Z,78.18
2022-11-23T08:09:53.163Z,79.02
2022-11-23T08:12:19.728Z,78.56
2022-11-23T08:14:46.219Z,77.99
2022-11-23T08:17:12.812Z,78.28
2022-11-23T08:19:39.464Z,78.41
2022-11-23T08:22:05.976Z,78.88
2022-11-23T08:24:32.995Z,78.18
2022-11-23T08:26:59.751Z,77.86
2022-11-23T08:29:26.305Z,77.82
2022-11-23T08:31:55.237Z,76.99
2022-11-23T08:34:24.297Z,77.15
2022-11-23T08:36:50.898Z,75.57
2022-11-23T08:39:19.483Z,76.84
2022-11-23T08:41:46.037Z,76.42
2022-11-23T08:44:12.639Z,75.85
2022-11-23T08:46:41.710Z,76.67
2022-11-23T08:49:08.444Z,76.01
2022-11-23T08:51:37.822Z,76.23
2022-11-23T08:54:04.395Z,74.99
2022-11-23T08:56:30.979Z,76.61
2022-11-23T08:59:00.383Z,75.96
2022-11-23T09:01:27.309Z,75.56
2022-11-23T09:03:54.951Z,76.33
2022-11-23T09:06:27.042Z,76.64
2022-11-23T09:08:53.954Z,76.83
2022-11-23T09:11:22.630Z,77.00
2022-11-23T09:13:49.304Z,76.96
2022-11-23T09:16:15.856Z,76.99
2022-11-23T09:18:44.766Z,77.27
2022-11-23T09:21:11.405Z,76.82
2022-11-23T09:23:38.018Z,76.83
2022-11-23T09:26:04.904Z,75.99
2022-11-23T09:28:32.267Z,76.78
2022-11-23T09:30:58.987Z,76.71
2022-11-23T09:33:30.605Z,75.65
2022-11-23T09:36:01.022Z,75.32
2022-11-23T09:38:51.632Z,76.07
2022-11-23T09:41:33.524Z,76.79
2022-11-23T09:44:00.113Z,76.60
2022-11-23T09:46:55.857Z,76.44
2022-11-23T09:49:28.331Z,75.96
2022-11-23T09:51:55.116Z,76.61
2022-11-23T09:54:30.431Z,77.30
2022-11-23T09:57:01.959Z,75.48
2022-11-23T09:59:32.492Z,76.16
2022-11-23T10:02:01.757Z,77.15
2022-11-23T10:04:34.076Z,77.11
2022-11-23T10:07:21.192Z,76.64
2022-11-23T10:09:58.039Z,76.57
2022-11-23T10:12:24.544Z,76.20
2022-11-23T10:15:20.617Z,76.40
2022-11-23T10:17:53.593Z,76.31
2022-11-23T10:20:29.377Z,75.69
2022-11-23T10:22:59.917Z,75.96
2022-11-23T10:25:27.890Z,74.64
2022-11-23T10:27:55.354Z,75.87
2022-11-23T10:30:24.286Z,75.37
2022-11-23T10:32:52.963Z,76.83
2022-11-23T10:35:25.519Z,75.99
2022-11-23T10:37:53.668Z,76.08
2022-11-23T10:40:27.481Z,76.83
2022-11-23T10:43:00.437Z,77.02
2022-11-23T10:45:27.678Z,75.99
2022-11-23T10:47:55.361Z,75.86
2022-11-23T10:50:24.382Z,76.16
2022-11-23T10:52:58.537Z,75.18
2022-11-23T10:55:26.805Z,75.55
2022-11-23T10:57:53.701Z,75.49
2022-11-23T11:00:23.679Z,75.75
2022-11-23T11:02:57.203Z,74.99
2022-11-23T11:05:46.265Z,74.91
2022-11-23T11:08:14.155Z,75.50
2022-11-23T11:10:50.768Z,75.21
2022-11-23T11:13:37.643Z,74.65
2022-11-23T11:16:08.844Z,73.96
2022-11-23T11:18:36.244Z,74.61
2022-11-23T11:21:21.225Z,74.81
2022-11-23T11:23:55.216Z,74.44
2022-11-23T11:26:27.094Z,74.97
2022-11-23T11:28:54.810Z,74.73
2022-11-23T11:31:42.607Z,74.55
2022-11-23T11:34:15.145Z,74.50
2022-11-23T11:36:45.566Z,74.44
2022-11-23T11:39:19.581Z,74.71
2022-11-23T11:41:49.162Z,74.65
2022-11-23T11:44:20.418Z,75.12
2022-11-23T11:46:50.382Z,74.05
2022-11-23T11:49:18.515Z,74.28
2022-11-23T11:52:03.977Z,74.49
2022-11-23T11:54:46.785Z,73.90
2022-11-23T11:57:18.289Z,74.06
2022-11-23T11:59:52.950Z,74.48
2022-11-23T12:02:30.163Z,74.39
2022-11-23T12:05:09.063Z,74.40
2022-11-23T12:07:55.942Z,74.21
2022-11-23T12:10:26.529Z,74.28
2022-11-23T12:12:53.074Z,73.67
2022-11-23T12:18:23.778Z,71.44
2022-11-23T12:20:50.423Z,73.44
2022-11-23T12:23:25.504Z,72.49
2022-11-23T12:26:01.271Z,72.46
2022-11-23T12:28:32.214Z,72.04
2022-11-23T12:31:02.173Z,72.70
2022-11-23T12:33:32.847Z,72.31
2022-11-23T12:35:59.434Z,72.35
2022-11-23T12:38:35.253Z,72.89
2022-11-23T12:41:04.839Z,72.40
2022-11-23T12:43:45.761Z,71.68
2022-11-23T12:46:18.527Z,72.46
2022-11-23T12:49:03.536Z,72.66
2022-11-23T12:51:48.582Z,72.11
2022-11-23T12:54:27.729Z,70.84
2022-11-23T12:57:17.701Z,72.36
2022-11-23T12:59:49.046Z,71.99
2022-11-23T13:02:22.875Z,71.57
2022-11-23T13:04:55.621Z,72.54
2022-11-23T13:07:35.398Z,72.34
2022-11-23T13:10:11.923Z,72.45
2022-11-23T13:12:44.862Z,72.43
2022-11-23T13:15:17.519Z,72.64
2022-11-23T13:17:47.477Z,72.72
2022-11-23T13:20:32.830Z,73.40
2022-11-23T13:22:59.425Z,72.62
2022-11-23T13:25:29.385Z,71.10
2022-11-23T13:27:59.792Z,71.10
2022-11-23T13:33:26.615Z,70.87
2022-11-23T13:36:02.138Z,70.97
2022-11-23T13:38:39.965Z,70.43
2022-11-23T13:41:30.494Z,71.78
2022-11-23T13:44:12.112Z,72.43
2022-11-23T13:46:41.484Z,71.09
2022-11-23T13:49:27.976Z,71.73
2022-11-23T13:52:07.513Z,72.00
2022-11-23T13:54:36.679Z,71.57
2022-11-23T13:57:05.786Z,71.43
2022-11-23T13:59:33.439Z,71.87
2022-11-23T14:02:08.892Z,71.35
2022-11-23T14:04:39.485Z,71.55
2022-11-23T14:07:09.087Z,70.97
2022-11-23T14:09:37.057Z,71.51
2022-11-23T14:12:14.251Z,71.72
2022-11-23T14:14:40.741Z,71.82
2022-11-23T14:17:23.841Z,71.79
2022-11-23T14:19:53.454Z,70.82
2022-11-23T14:22:28.089Z,70.56
2022-11-23T14:25:16.520Z,70.47
2022-11-23T14:28:06.353Z,70.55
2022-11-23T14:30:41.444Z,70.83
2022-11-23T14:33:26.767Z,71.70
2022-11-23T14:36:20.037Z,71.62
2022-11-23T14:38:55.059Z,71.47
2022-11-23T14:41:24.890Z,71.30
2022-11-23T14:43:51.468Z,71.14
2022-11-23T14:46:19.936Z,71.61
2022-11-23T14:48:49.347Z,71.93
2022-11-23T14:51:27.966Z,71.51
2022-11-23T14:53:57.376Z,71.80
2022-11-23T14:56:34.578Z,72.12
2022-11-23T14:59:02.846Z,71.33
2022-11-23T15:01:31.870Z,71.15
2022-11-23T15:04:10.718Z,71.22
2022-11-23T15:06:43.889Z,71.26
2022-11-23T15:09:15.752Z,71.33
2022-11-23T15:11:44.727Z,71.24
2022-11-23T15:14:25.966Z,70.77
2022-11-23T15:16:52.815Z,71.29
2022-11-23T15:19:23.734Z,70.98
2022-11-23T15:21:50.382Z,70.19
2022-11-23T15:24:21.957Z,70.74
2022-11-23T15:26:50.764Z,71.20
2022-11-23T15:29:29.551Z,71.25
2022-11-23T15:32:22.302Z,70.65
2022-11-23T15:34:45.381Z,71.16
2022-11-23T15:37:11.945Z,71.52
2022-11-23T15:39:38.458Z,70.35
2022-11-23T15:42:05.278Z,70.72
2022-11-23T15:44:35.873Z,71.15
2022-11-23T15:47:03.572Z,71.35
2022-11-23T15:49:30.576Z,71.37
2022-11-23T15:52:02.795Z,70.79
2022-11-23T15:54:32.453Z,71.60
2022-11-23T15:56:59.262Z,71.37
2022-11-23T15:59:32.803Z,70.71
2022-11-23T16:02:03.941Z,70.69
2022-11-23T16:04:33.149Z,71.38
2022-11-23T16:07:07.083Z,71.45
2022-11-23T16:12:23.278Z,71.03
2022-11-23T16:14:50.040Z,71.26
2022-11-23T16:17:16.579Z,71.52
2022-11-23T16:19:46.825Z,71.44
2022-11-23T16:22:17.532Z,71.47
2022-11-23T16:24:44.072Z,71.74
2022-11-23T16:27:14.285Z,71.82
2022-11-23T16:29:43.256Z,71.91
2022-11-23T16:32:25.324Z,71.91
2022-11-23T16:34:52.497Z,71.83
2022-11-23T16:37:19.080Z,71.95
2022-11-23T16:39:45.638Z,71.65
2022-11-23T16:42:15.637Z,71.76
2022-11-23T16:44:43.074Z,71.49
2022-11-23T16:47:21.252Z,71.47
2022-11-23T16:49:48.248Z,71.38
2022-11-23T16:52:17.267Z,71.01
2022-11-23T16:54:43.849Z,71.19
2022-11-23T16:57:28.828Z,71.52
2022-11-23T16:59:57.872Z,71.24
2022-11-23T17:02:26.828Z,71.85
2022-11-23T17:04:56.682Z,71.47
2022-11-23T17:07:23.433Z,71.93
2022-11-23T17:09:50.057Z,72.55
2022-11-23T17:12:19.779Z,72.68
2022-11-23T17:14:49.469Z,72.85
2022-11-23T17:17:20.642Z,72.74
2022-11-23T17:19:50.168Z,72.86
2022-11-23T17:22:19.525Z,72.20
2022-11-23T17:24:48.954Z,72.19
2022-11-23T17:27:20.693Z,72.22
2022-11-23T17:29:47.452Z,72.69
2022-11-23T17:32:14.274Z,72.56
2022-11-23T17:34:40.816Z,73.09
2022-11-23T17:37:09.789Z,73.03
2022-11-23T17:39:36.522Z,73.35
2022-11-23T17:42:05.626Z,73.64
2022-11-23T17:44:35.158Z,73.57
2022-11-23T17:47:01.682Z,73.84
2022-11-23T17:49:31.250Z,74.20
2022-11-23T17:51:58.595Z,74.25
2022-11-23T17:54:27.545Z,74.21
2022-11-23T17:56:54.194Z,74.14
2022-11-23T17:59:20.856Z,74.30
2022-11-23T18:01:47.804Z,74.08
2022-11-23T18:04:14.387Z,74.36
2022-11-23T18:06:40.968Z,73.32
2022-11-23T18:09:08.834Z,73.90
2022-11-23T18:11:35.354Z,73.52
2022-11-23T18:14:03.255Z,73.54
2022-11-23T18:16:29.859Z,73.72
2022-11-23T18:18:56.915Z,74.06
2022-11-23T18:21:23.486Z,73.96
2022-11-23T18:23:52.543Z,74.32
2022-11-23T18:26:23.202Z,73.97
2022-11-23T18:28:52.378Z,74.32
2022-11-23T18:31:21.299Z,74.16
2022-11-23T18:33:50.353Z,74.27
2022-11-23T18:36:16.874Z,74.37
2022-11-23T18:38:46.776Z,74.08
2022-11-23T18:41:14.386Z,74.30
2022-11-23T18:43:43.442Z,74.28
2022-11-23T18:46:19.617Z,73.59
2022-11-23T18:48:51.555Z,73.72
2022-11-23T18:51:20.568Z,74.27
2022-11-23T18:53:50.988Z,74.71
2022-11-23T18:56:18.023Z,74.20
2022-11-23T18:58:45.099Z,74.29
2022-11-23T19:01:12.722Z,74.18
2022-11-23T19:03:42.052Z,73.94
2022-11-23T19:06:09.077Z,74.17
2022-11-23T19:08:42.005Z,73.79
2022-11-23T19:11:09.426Z,74.15
2022-11-23T19:13:37.074Z,73.71
2022-11-23T19:16:13.638Z,74.19
2022-11-23T19:18:40.213Z,73.81
2022-11-23T19:21:13.046Z,74.03
2022-11-23T19:23:39.575Z,73.93
2022-11-23T19:26:08.478Z,73.65
2022-11-23T19:28:37.499Z,73.67
2022-11-23T19:31:30.684Z,72.82
2022-11-23T19:33:58.571Z,73.39
2022-11-23T19:36:25.285Z,73.04
2022-11-23T19:38:51.934Z,73.39
2022-11-23T19:41:18.864Z,73.60
2022-11-23T19:43:52.026Z,73.37
2022-11-23T19:46:19.061Z,73.52
2022-11-23T19:48:50.792Z,73.38
2022-11-23T19:51:19.425Z,73.01
2022-11-23T19:53:46.620Z,71.96
2022-11-23T19:56:13.936Z,72.78
2022-11-23T19:58:42.887Z,72.66
2022-11-23T20:01:19.547Z,72.89
2022-11-23T20:03:49.813Z,73.00
2022-11-23T20:06:26.326Z,73.19
2022-11-23T20:08:58.655Z,73.51
2022-11-23T20:11:28.479Z,73.77
2022-11-23T20:13:55.490Z,73.65
2022-11-23T20:16:29.761Z,74.06
2022-11-23T20:19:00.808Z,73.90
2022-11-23T20:21:30.041Z,73.88
2022-11-23T20:24:02.787Z,73.83
2022-11-23T20:26:31.444Z,73.84
2022-11-23T20:28:58.369Z,73.81
2022-11-23T20:31:25.840Z,73.33
2022-11-23T20:33:52.685Z,73.56
2022-11-23T20:36:21.634Z,73.35
2022-11-23T20:38:48.853Z,73.85
2022-11-23T20:41:24.479Z,73.38
2022-11-23T20:43:52.172Z,72.70
2022-11-23T20:46:38.216Z,73.38
2022-11-23T20:49:05.355Z,73.56
2022-11-23T20:51:34.332Z,73.57
2022-11-23T20:54:00.904Z,73.15
2022-11-23T20:56:29.096Z,73.45
2022-11-23T20:58:59.895Z,73.00
2022-11-23T21:01:27.798Z,73.55
2022-11-23T21:03:55.998Z,73.62
2022-11-23T21:06:22.846Z,73.85
2022-11-23T21:08:49.574Z,73.54
2022-11-23T21:11:34.929Z,73.45
2022-11-23T21:14:12.392Z,73.13
2022-11-23T21:16:45.908Z,73.01
2022-11-23T21:19:12.964Z,74.03
2022-11-23T21:21:44.493Z,73.76
2022-11-23T21:24:13.545Z,74.14
2022-11-23T21:26:40.379Z,74.23
2022-11-23T21:29:11.446Z,74.22
2022-11-23T21:31:44.595Z,74.50
2022-11-23T21:34:17.683Z,74.54
2022-11-23T21:36:44.404Z,74.75
2022-11-23T21:39:13.440Z,74.41
2022-11-23T21:41:44.980Z,74.26
2022-11-23T21:44:13.876Z,74.55
2022-11-23T21:46:42.985Z,74.30
2022-11-23T21:49:13.000Z,74.00
2022-11-23T21:51:39.608Z,74.58
2022-11-23T21:54:06.938Z,75.21
2022-11-23T21:56:35.976Z,75.81
2022-11-23T21:59:02.586Z,75.92
2022-11-23T22:01:29.802Z,75.90
2022-11-23T22:04:04.016Z,75.25
2022-11-23T22:06:30.659Z,75.45
2022-11-23T22:09:04.908Z,75.20
2022-11-23T22:11:34.874Z,75.44
2022-11-23T22:14:07.467Z,75.58
2022-11-23T22:16:34.752Z,75.60
2022-11-23T22:19:01.526Z,75.27
2022-11-23T22:21:31.982Z,75.45
2022-11-23T22:23:58.833Z,75.42
2022-11-23T22:26:27.601Z,75.21
2022-11-23T22:28:54.857Z,75.95
2022-11-23T22:31:25.113Z,75.97
2022-11-23T22:33:55.147Z,75.41
2022-11-23T22:36:24.190Z,75.60
2022-11-23T22:39:00.835Z,75.31
2022-11-23T22:41:28.214Z,75.09
2022-11-23T22:43:57.218Z,75.13
2022-11-23T22:46:25.219Z,75.45
2022-11-23T22:48:52.316Z,74.99
2022-11-23T22:51:22.417Z,75.07
2022-11-23T22:53:52.868Z,75.02
2022-11-23T22:56:19.778Z,74.78
2022-11-23T22:58:46.712Z,75.21
2022-11-23T23:01:14.166Z,75.10
2022-11-23T23:03:43.154Z,75.05
2022-11-23T23:06:15.016Z,74.77
2022-11-23T23:08:41.664Z,74.98
2022-11-23T23:11:08.307Z,74.43
2022-11-23T23:13:34.857Z,74.72
2022-11-23T23:16:07.477Z,74.60
2022-11-23T23:18:34.263Z,74.24
2022-11-23T23:21:04.787Z,74.81
2022-11-23T23:23:31.757Z,73.97
2022-11-23T23:25:58.318Z,74.14
2022-11-23T23:28:25.311Z,75.05
2022-11-23T23:30:51.849Z,75.36
2022-11-23T23:33:18.519Z,75.13
2022-11-23T23:35:45.089Z,75.66
2022-11-23T23:38:11.599Z,75.42
2022-11-23T23:40:40.916Z,75.12
2022-11-23T23:43:09.997Z,75.46
2022-11-23T23:45:36.595Z,75.00
2022-11-23T23:48:05.547Z,75.33
2022-11-23T23:50:35.358Z,75.81
2022-11-23T23:53:01.918Z,75.68
2022-11-23T23:55:30.764Z,75.98
2022-11-23T23:57:59.091Z,75.92
